Terminal Aerodrome Forecast
Issued by NWS Jackson, KY

Current Version | Previous Version | Text Only | Print | Product List | Glossary On
Versions: 1 2 3 4 5 6 7 8 9 10 11 12 13 14 15 16 17 18 19 20 21
000
FTUS43 KJKL 201426 CCA
TAFJKL
TAF COR
KJKL 201426Z 2014/2112 VRB03KT P6SM SCT020
     FM201600 VRB03KT P6SM FEW050
     FM211000 VRB03KT 1/4SM FG VV002=

USA.gov is the U.S. government's official web portal to all federal, state and local government web resources and services.